Terminal Aerodrome Forecast
Issued by NWS Sioux Falls, SD

Home | Current Version | Previous Version | Graphics & Text | Print | Product List | Glossary On
Versions: 1 2 3 4 5 6 7 8 9 10 11 12
881
FTUS43 KFSD 192339
TAFFSD
TAF
KFSD 192339Z 2000/2024 08007KT P6SM FEW035 OVC200
     FM200600 10005KT P6SM -RA OVC080
     FM201200 VRB04KT P6SM -RA OVC030
     FM201800 02005KT P6SM OVC050=

USA.gov is the U.S. government's official web portal to all federal, state and local government web resources and services.